Time;durP1;ratioP1;P1;durP2;ratioP2;P2;SDS_P1;SDS_P2;PMS_P1;PMS_P2;Temp;Humidity;BMP_temperature;BMP_pressure;BME280_temperature;BME280_humidity;BME280_pressure;Samples;Min_cycle;Max_cycle;Signal;HPM_P1;HPM_P2
2021/05/12 21:38:45;;;;;;;24.13;5.18;;;;;20.20;101909.00;;;;5084324;27;20946;-70
2021/05/12 21:41:12;;;;;;;17.85;4.95;;;;;20.00;101905.00;;;;5078537;28;20025;-72
2021/05/12 21:43:39;;;;;;;20.92;5.18;;;;;20.00;101912.00;;;;5061207;28;20067;-73
2021/05/12 21:46:05;;;;;;;15.50;5.68;;;;;20.00;101912.00;;;;5062575;28;20060;-72
2021/05/12 21:48:32;;;;;;;15.10;4.63;;;;;19.90;101916.00;;;;5064077;28;20371;-72
2021/05/12 21:51:00;;;;;;;19.45;5.22;;;;;19.80;101912.00;;;;5065128;28;20037;-69
2021/05/12 21:53:27;;;;;;;20.15;5.22;;;;;19.70;101902.00;;;;5063305;28;20025;-70
2021/05/12 21:55:54;;;;;;;22.75;5.78;;;;;19.70;101911.00;;;;5046373;28;20033;-68
2021/05/12 21:58:21;;;;;;;20.98;5.75;;;;;19.70;101906.00;;;;5064459;28;20037;-70
2021/05/12 22:00:56;;;;;;;20.08;5.88;;;;;19.70;101894.00;;;;5063321;28;20040;-74
2021/05/12 22:03:30;;;;;;;17.70;6.63;;;;;19.80;101904.00;;;;5064087;28;20070;-69
2021/05/12 22:06:13;;;;;;;68.75;35.90;;;;;19.80;101919.00;;;;5063069;28;20497;-68
2021/05/12 22:30:21;;;;;;;117.25;64.28;;;;;19.50;101944.00;;;;5044809;28;20515;-67
2021/05/12 22:32:49;;;;;;;121.82;63.88;;;;;19.60;101943.00;;;;5044939;28;20524;-67
2021/05/12 22:35:22;;;;;;;112.22;60.90;;;;;19.50;101937.00;;;;5044553;28;20116;-67
2021/05/12 22:37:51;;;;;;;108.85;57.45;;;;;19.50;101934.00;;;;5042826;28;20042;-67
2021/05/12 22:40:20;;;;;;;104.22;57.20;;;;;19.50;101943.00;;;;5044712;28;20128;-70
2021/05/12 22:42:46;;;;;;;104.97;55.88;;;;;19.50;101943.00;;;;5044541;28;20092;-68
2021/05/12 22:45:13;;;;;;;93.28;50.92;;;;;19.60;101955.00;;;;5053791;28;20025;-69
2021/05/12 22:47:40;;;;;;;91.57;51.10;;;;;19.50;101948.00;;;;5052363;28;20025;-68
2021/05/12 22:50:11;;;;;;;89.80;50.00;;;;;19.50;101945.00;;;;5043643;28;20109;-67
2021/05/12 22:52:38;;;;;;;106.30;46.80;;;;;19.60;101957.00;;;;5031337;28;21204;-68
2021/05/12 22:55:22;;;;;;;85.82;42.35;;;;;19.70;101968.00;;;;5046059;28;20037;-67
2021/05/12 22:57:49;;;;;;;85.47;42.63;;;;;19.70;101981.00;;;;5030386;28;20492;-67
2021/05/12 23:00:19;;;;;;;93.45;43.00;;;;;19.70;101973.00;;;;5040541;28;20036;-67
2021/05/12 23:02:46;;;;;;;79.10;40.05;;;;;19.70;101957.00;;;;5049693;28;20066;-66
2021/05/12 23:05:13;;;;;;;86.10;40.58;;;;;19.60;101973.00;;;;5041064;28;20017;-67
2021/05/12 23:07:40;;;;;;;78.30;38.60;;;;;19.60;101960.00;;;;5030533;28;20075;-66
2021/05/12 23:10:09;;;;;;;79.93;38.03;;;;;19.70;101967.00;;;;5041985;28;20123;-65
2021/05/12 23:12:36;;;;;;;65.03;36.85;;;;;19.60;101990.00;;;;5046508;28;20048;-66
2021/05/12 23:15:04;;;;;;;87.72;37.03;;;;;19.50;101984.00;;;;5050037;28;20063;-66
2021/05/12 23:17:30;;;;;;;67.20;32.88;;;;;19.60;101982.00;;;;5033086;28;20803;-66
2021/05/12 23:19:57;;;;;;;72.63;34.70;;;;;19.60;101971.00;;;;5030534;28;20505;-66
2021/05/12 23:22:24;;;;;;;66.65;33.22;;;;;19.60;101995.00;;;;5034236;28;20484;-67
2021/05/12 23:24:51;;;;;;;60.65;32.13;;;;;19.50;101984.00;;;;5035606;28;20029;-71
2021/05/12 23:35:53;;;;;;;69.70;28.63;;;;;20.00;102018.00;;;;5021248;27;2241462;-68
2021/05/12 23:40:41;;;;;;;82.78;42.47;;;;;18.90;102007.00;;;;5164697;27;20209;-65
2021/05/12 23:43:09;;;;;;;178.80;117.22;;;;;20.00;102011.00;;;;5122005;27;20027;-77
2021/05/12 23:45:35;;;;;;;142.48;92.90;;;;;19.20;102000.00;;;;5115724;27;20027;-68
2021/05/12 23:48:04;;;;;;;122.05;67.38;;;;;18.80;102007.00;;;;5104203;28;20032;-68
2021/05/12 23:51:07;;;;;;;81.73;45.27;;;;;18.50;101996.00;;;;5087213;27;1714467;-78
2021/05/12 23:53:34;;;;;;;88.70;35.47;;;;;18.20;101998.00;;;;5103031;28;20459;-70
2021/05/12 23:56:01;;;;;;;81.45;31.58;;;;;18.40;102001.00;;;;5110544;28;20063;-70
2021/05/12 23:58:27;;;;;;;63.05;30.20;;;;;18.50;101998.00;;;;5099925;28;20040;-70
